Isle of Canna, United Kingdom
Current Conditions -  °F | °C
As of 2:50 AM on Sunday 26 Oct 2014 (Local Time) from EGPU Reporting Station
Light Rain Light Rain  
Wind Chill: 54°   Ceiling: 3000
Heat Index: 54°   Visibility: 4mi
Dew Point: 48°   Wind: 35mph
Humidity: 82%   Direction: 240°WSW
Pressure: 29.53"   Gusts: 51mph
Location:  57.06°N, 6.5°W
Report Text: EGPU 260150Z AUTO 24030G44KT 200V260 6000 -RADZ FEW024/// BKN030/// 12/09 Q1000
Loading
Personal Weather Stations






























Interactive Weather Map New forecast layout! Learn more

10-Day Weather Forecast

Advertisements
Track Severe Weather on mobile